createdAt,value
2022-11-25T00:01:50.843Z,1.63
2022-11-25T00:04:39.224Z,1.95
2022-11-25T00:07:26.199Z,1.70
2022-11-25T00:10:13.149Z,1.77
2022-11-25T00:13:00.089Z,1.60
2022-11-25T00:15:47.008Z,1.75
2022-11-25T00:18:34.357Z,1.35
2022-11-25T00:21:24.137Z,1.88
2022-11-25T00:24:14.247Z,1.50
2022-11-25T00:27:04.903Z,1.70
2022-11-25T00:29:52.003Z,2.30
2022-11-25T00:32:39.005Z,1.65
2022-11-25T00:35:25.916Z,1.13
2022-11-25T00:38:12.882Z,2.03
2022-11-25T00:41:18.632Z,2.10
2022-11-25T00:44:24.259Z,1.80
2022-11-25T00:47:16.475Z,1.77
2022-11-25T00:50:03.893Z,1.60
2022-11-25T00:52:50.828Z,2.10
2022-11-25T00:55:57.724Z,2.20
2022-11-25T00:58:45.908Z,2.15
2022-11-25T01:01:33.300Z,1.60
2022-11-25T01:04:20.342Z,2.25
2022-11-25T01:07:07.612Z,1.70
2022-11-25T01:09:54.585Z,1.73
2022-11-25T01:12:41.511Z,2.08
2022-11-25T01:15:28.397Z,2.22
2022-11-25T01:18:15.499Z,2.45
2022-11-25T01:21:23.007Z,2.92
2022-11-25T01:24:12.115Z,2.30
2022-11-25T01:26:59.042Z,2.20
2022-11-25T01:29:46.162Z,2.17
2022-11-25T01:32:33.263Z,2.33
2022-11-25T01:35:20.235Z,2.97
2022-11-25T01:38:07.148Z,1.73
2022-11-25T01:40:54.075Z,2.25
2022-11-25T01:43:41.738Z,3.08
2022-11-25T01:46:37.671Z,3.15
2022-11-25T01:49:42.253Z,3.25
2022-11-25T01:52:35.602Z,3.83
2022-11-25T01:55:26.959Z,3.20
2022-11-25T01:58:21.381Z,3.05
2022-11-25T02:01:08.504Z,5.72
2022-11-25T02:03:58.228Z,3.22
2022-11-25T02:06:54.169Z,3.40
2022-11-25T02:09:43.643Z,3.15
2022-11-25T02:12:31.872Z,2.90
2022-11-25T02:15:19.171Z,3.58
2022-11-25T02:18:06.872Z,2.97
2022-11-25T02:20:54.049Z,3.22
2022-11-25T02:23:53.720Z,4.95
2022-11-25T02:26:40.844Z,4.55
2022-11-25T02:29:28.280Z,3.05
2022-11-25T02:32:15.432Z,3.35
2022-11-25T02:35:02.532Z,3.80
2022-11-25T02:37:49.523Z,4.50
2022-11-25T02:40:58.069Z,3.70
2022-11-25T02:43:45.155Z,3.78
2022-11-25T02:46:32.489Z,3.38
2022-11-25T02:49:19.452Z,2.92
2022-11-25T02:52:06.375Z,2.80
2022-11-25T02:54:53.315Z,3.60
2022-11-25T02:57:40.182Z,4.32
2022-11-25T03:00:27.298Z,3.97
2022-11-25T03:03:14.657Z,3.78
2022-11-25T03:06:02.143Z,4.13
2022-11-25T03:08:49.501Z,3.80
2022-11-25T03:11:54.986Z,4.93
2022-11-25T03:14:41.893Z,3.10
2022-11-25T03:17:28.873Z,3.17
2022-11-25T03:20:16.128Z,3.58
2022-11-25T03:23:04.267Z,4.53
2022-11-25T03:25:51.239Z,3.72
2022-11-25T03:28:38.211Z,3.75
2022-11-25T03:31:25.150Z,3.55
2022-11-25T03:34:12.681Z,2.78
2022-11-25T03:36:59.853Z,2.83
2022-11-25T03:39:46.884Z,3.58
2022-11-25T03:42:33.873Z,3.35
2022-11-25T03:45:21.136Z,3.47
2022-11-25T03:48:08.064Z,4.72
2022-11-25T03:50:55.007Z,3.83
2022-11-25T03:53:41.936Z,4.72
2022-11-25T03:56:28.966Z,4.25
2022-11-25T03:59:15.914Z,3.67
2022-11-25T04:02:03.015Z,3.80
2022-11-25T04:04:50.104Z,3.63
2022-11-25T04:07:37.125Z,4.53
2022-11-25T04:10:24.134Z,4.00
2022-11-25T04:13:11.112Z,3.17
2022-11-25T04:15:58.212Z,6.22
2022-11-25T04:18:45.127Z,6.03
2022-11-25T04:21:32.032Z,5.50
2022-11-25T04:24:19.788Z,6.25
2022-11-25T04:27:06.888Z,10.60
2022-11-25T04:29:53.864Z,34.95
2022-11-25T04:32:40.831Z,83.47
2022-11-25T04:35:27.893Z,55.85
2022-11-25T04:38:14.956Z,27.35
2022-11-25T04:41:02.048Z,18.88
2022-11-25T04:43:48.968Z,15.73
2022-11-25T04:46:41.300Z,16.38
2022-11-25T04:49:28.199Z,13.75
2022-11-25T04:52:15.060Z,10.52
2022-11-25T04:55:01.945Z,4.72
2022-11-25T04:57:48.821Z,5.47
2022-11-25T05:00:35.732Z,5.13
2022-11-25T05:03:22.661Z,4.53
2022-11-25T05:06:09.973Z,4.13
2022-11-25T05:08:56.860Z,3.88
2022-11-25T05:11:43.763Z,4.28
2022-11-25T05:14:30.832Z,4.57
2022-11-25T05:17:23.261Z,3.85
2022-11-25T05:20:10.879Z,3.90
2022-11-25T05:22:57.743Z,3.70
2022-11-25T05:25:44.701Z,3.63
2022-11-25T05:28:32.517Z,6.05
2022-11-25T05:31:19.414Z,5.72
2022-11-25T05:34:06.516Z,12.60
2022-11-25T05:36:53.685Z,10.15
2022-11-25T05:39:40.584Z,8.52
2022-11-25T05:42:29.731Z,6.68
2022-11-25T05:45:16.731Z,5.47
2022-11-25T05:48:03.748Z,5.45
2022-11-25T05:50:50.765Z,4.55
2022-11-25T05:53:37.930Z,4.90
2022-11-25T05:56:24.955Z,3.50
2022-11-25T05:59:11.924Z,4.32
2022-11-25T06:01:58.949Z,5.22
2022-11-25T06:04:45.952Z,3.92
2022-11-25T06:07:32.901Z,3.67
2022-11-25T06:10:20.226Z,3.50
2022-11-25T06:13:08.312Z,3.03
2022-11-25T06:15:55.309Z,4.35
2022-11-25T06:18:42.946Z,4.38
2022-11-25T06:21:30.272Z,5.43
2022-11-25T06:24:17.768Z,5.22
2022-11-25T06:27:04.800Z,3.95
2022-11-25T06:29:51.777Z,4.35
2022-11-25T06:32:38.728Z,5.15
2022-11-25T06:35:25.624Z,5.95
2022-11-25T06:38:12.544Z,11.02
2022-11-25T06:41:03.888Z,11.48
2022-11-25T06:43:51.077Z,7.53
2022-11-25T06:46:38.219Z,6.13
2022-11-25T06:49:25.241Z,7.57
2022-11-25T06:52:12.132Z,8.95
2022-11-25T06:54:59.061Z,6.10
2022-11-25T06:57:45.939Z,5.28
2022-11-25T07:00:32.876Z,5.93
2022-11-25T07:03:19.763Z,5.80
2022-11-25T07:06:07.402Z,7.55
2022-11-25T07:08:54.544Z,9.70
2022-11-25T07:11:41.580Z,8.75
2022-11-25T07:14:28.520Z,10.75
2022-11-25T07:17:15.528Z,10.95
2022-11-25T07:20:02.468Z,12.52
2022-11-25T07:22:49.443Z,16.30
2022-11-25T07:25:36.469Z,15.85
2022-11-25T07:28:23.419Z,24.58
2022-11-25T07:31:27.240Z,45.13
2022-11-25T07:34:18.201Z,55.15
2022-11-25T07:37:05.127Z,30.23
2022-11-25T07:39:52.240Z,15.32
2022-11-25T07:42:39.175Z,11.20
2022-11-25T07:45:27.071Z,10.05
2022-11-25T07:48:13.939Z,10.65
2022-11-25T07:51:00.888Z,21.60
2022-11-25T07:53:49.283Z,20.42
2022-11-25T07:56:38.311Z,20.55
2022-11-25T07:59:25.470Z,17.65
2022-11-25T08:02:12.559Z,12.00
2022-11-25T08:04:59.485Z,13.88
2022-11-25T08:07:46.475Z,12.23
2022-11-25T08:10:33.460Z,9.93
2022-11-25T08:13:20.452Z,14.25
2022-11-25T08:16:08.224Z,14.52
2022-11-25T08:18:55.685Z,15.48
2022-11-25T08:21:42.943Z,16.90
2022-11-25T08:24:29.880Z,17.70
2022-11-25T08:27:16.969Z,22.52
2022-11-25T08:30:04.498Z,22.92
2022-11-25T08:32:51.892Z,25.23
2022-11-25T08:35:39.216Z,21.40
2022-11-25T08:38:26.755Z,19.70
2022-11-25T08:41:19.556Z,17.35
2022-11-25T08:44:08.519Z,23.77
2022-11-25T08:46:55.667Z,18.45
2022-11-25T08:49:43.196Z,16.20
2022-11-25T08:52:30.559Z,11.77
2022-11-25T08:55:17.588Z,11.32
2022-11-25T08:58:04.749Z,10.25
2022-11-25T09:00:51.682Z,9.52
2022-11-25T09:03:41.685Z,11.45
2022-11-25T09:06:29.372Z,14.35
2022-11-25T09:09:16.425Z,14.32
2022-11-25T09:12:03.590Z,10.32
2022-11-25T09:14:50.551Z,9.40
2022-11-25T09:17:37.575Z,9.73
2022-11-25T09:20:24.565Z,9.38
2022-11-25T09:23:11.487Z,9.35
2022-11-25T09:25:58.943Z,9.23
2022-11-25T09:28:45.880Z,7.57
2022-11-25T09:31:32.851Z,6.97
2022-11-25T09:34:19.792Z,8.10
2022-11-25T09:37:06.752Z,6.35
2022-11-25T09:39:56.103Z,7.32
2022-11-25T09:43:20.790Z,8.00
2022-11-25T09:46:50.067Z,5.72
2022-11-25T09:50:09.873Z,7.93
2022-11-25T09:53:19.710Z,6.88
2022-11-25T09:56:14.818Z,6.45
2022-11-25T09:59:18.238Z,6.60
2022-11-25T10:02:17.862Z,6.15
2022-11-25T10:05:34.486Z,6.25
2022-11-25T10:08:25.286Z,6.20
2022-11-25T10:11:41.948Z,7.82
2022-11-25T10:14:45.311Z,7.18
2022-11-25T10:17:54.095Z,6.47
2022-11-25T10:20:42.486Z,6.72
2022-11-25T10:23:35.235Z,6.70
2022-11-25T10:26:34.679Z,7.80
2022-11-25T10:29:27.652Z,6.55
2022-11-25T10:35:23.836Z,9.48
2022-11-25T10:38:20.209Z,7.15
2022-11-25T10:41:07.386Z,7.97
2022-11-25T10:43:54.508Z,8.15
2022-11-25T10:47:13.544Z,7.65
2022-11-25T10:50:16.188Z,7.65
2022-11-25T10:53:13.236Z,7.15
2022-11-25T10:56:12.527Z,7.53
2022-11-25T10:59:13.778Z,7.20
2022-11-25T11:02:22.896Z,7.18
2022-11-25T11:05:31.114Z,7.35
2022-11-25T11:08:24.592Z,9.30
2022-11-25T11:11:47.264Z,7.97
2022-11-25T11:14:34.864Z,8.73
2022-11-25T11:17:37.187Z,9.93
2022-11-25T11:20:30.031Z,10.37
2022-11-25T11:23:17.658Z,9.50
2022-11-25T11:26:06.728Z,8.90
2022-11-25T11:29:02.653Z,7.93
2022-11-25T11:31:58.590Z,8.80
2022-11-25T11:35:18.263Z,9.02
2022-11-25T11:38:30.079Z,8.40
2022-11-25T11:41:34.805Z,7.72
2022-11-25T11:45:08.143Z,8.88
2022-11-25T11:48:31.879Z,8.82
2022-11-25T11:52:02.113Z,8.73
2022-11-25T11:55:12.180Z,8.98
2022-11-25T11:58:31.141Z,10.15
2022-11-25T12:05:17.613Z,10.82
2022-11-25T12:11:43.681Z,13.63
2022-11-25T12:14:46.612Z,11.27
2022-11-25T12:17:51.955Z,10.15
2022-11-25T12:20:47.742Z,11.40
2022-11-25T12:24:14.488Z,11.07
2022-11-25T12:27:15.624Z,10.50
2022-11-25T12:30:13.903Z,10.45
2022-11-25T12:33:10.735Z,10.23
2022-11-25T12:36:16.748Z,9.35
2022-11-25T12:39:24.098Z,11.73
2022-11-25T12:42:20.560Z,10.77
2022-11-25T12:45:16.153Z,11.13
2022-11-25T12:48:03.593Z,11.63
2022-11-25T12:51:20.042Z,11.13
2022-11-25T12:54:48.303Z,10.85
2022-11-25T12:57:59.505Z,11.02
2022-11-25T13:01:07.087Z,10.80
2022-11-25T13:04:15.562Z,11.25
2022-11-25T13:07:27.438Z,11.80
2022-11-25T13:10:43.331Z,12.38
2022-11-25T13:13:58.531Z,11.93
2022-11-25T13:16:48.633Z,11.13
2022-11-25T13:19:37.264Z,10.95
2022-11-25T13:22:29.816Z,11.15
2022-11-25T13:25:26.137Z,11.43
2022-11-25T13:28:34.601Z,11.35
2022-11-25T13:31:34.489Z,13.38
2022-11-25T13:34:41.603Z,12.25
2022-11-25T13:37:37.062Z,12.02
2022-11-25T13:40:23.996Z,11.82
2022-11-25T13:43:23.316Z,10.63
2022-11-25T13:46:53.156Z,13.10
2022-11-25T13:49:52.977Z,12.60
2022-11-25T13:52:43.454Z,12.60
2022-11-25T13:55:42.087Z,13.93
2022-11-25T13:58:33.118Z,13.57
2022-11-25T14:01:29.476Z,13.02
2022-11-25T14:04:24.334Z,12.85
2022-11-25T14:07:30.373Z,14.65
2022-11-25T14:10:45.008Z,13.75
2022-11-25T14:13:56.695Z,15.05
2022-11-25T14:17:18.732Z,16.55
2022-11-25T14:20:24.947Z,17.13
2022-11-25T14:23:47.072Z,17.55
2022-11-25T14:26:49.785Z,16.38
2022-11-25T14:29:55.160Z,17.52
2022-11-25T14:32:57.639Z,18.63
2022-11-25T14:35:53.947Z,18.33
2022-11-25T14:38:49.263Z,18.75
2022-11-25T14:41:58.199Z,17.58
2022-11-25T14:44:49.369Z,18.98
2022-11-25T14:47:39.422Z,17.88
2022-11-25T14:50:34.641Z,18.15
2022-11-25T14:53:23.841Z,20.73
2022-11-25T14:56:12.946Z,19.60
2022-11-25T14:59:01.155Z,20.52
2022-11-25T15:01:54.111Z,21.13
2022-11-25T15:04:41.608Z,19.90
2022-11-25T15:07:31.282Z,22.88
2022-11-25T15:10:42.458Z,19.55
2022-11-25T15:13:39.405Z,21.52
2022-11-25T15:16:33.668Z,61.33
2022-11-25T15:19:25.303Z,29.48
2022-11-25T15:22:23.389Z,25.45
2022-11-25T15:25:15.352Z,24.13
2022-11-25T15:28:02.496Z,26.13
2022-11-25T15:30:57.720Z,25.25
2022-11-25T15:33:45.080Z,26.67
2022-11-25T15:36:32.104Z,29.58
2022-11-25T15:39:27.768Z,28.30
2022-11-25T15:42:21.968Z,28.08
2022-11-25T15:45:20.239Z,27.55
2022-11-25T15:48:12.482Z,28.08
2022-11-25T15:51:21.220Z,27.15
2022-11-25T15:54:19.208Z,25.35
2022-11-25T15:57:34.824Z,26.73
2022-11-25T16:00:23.305Z,24.85
2022-11-25T16:03:20.001Z,25.10
2022-11-25T16:06:26.904Z,27.85
2022-11-25T16:09:20.874Z,24.73
2022-11-25T16:12:17.707Z,29.42
2022-11-25T16:15:05.186Z,24.35
2022-11-25T16:17:56.736Z,26.05
2022-11-25T16:20:56.863Z,24.35
2022-11-25T16:23:55.018Z,24.13
2022-11-25T16:26:56.646Z,24.88
2022-11-25T16:30:17.549Z,23.90
2022-11-25T16:33:09.825Z,21.10
2022-11-25T16:35:56.713Z,22.05
2022-11-25T16:38:43.709Z,22.15
2022-11-25T16:41:31.247Z,22.90
2022-11-25T16:44:21.381Z,22.42
2022-11-25T16:47:10.671Z,23.23
2022-11-25T16:49:57.617Z,25.20
2022-11-25T16:52:45.029Z,20.30
2022-11-25T16:55:32.145Z,21.48
2022-11-25T16:58:22.719Z,21.45
2022-11-25T17:01:14.576Z,21.13
2022-11-25T17:04:01.526Z,19.15
2022-11-25T17:07:16.519Z,21.13
2022-11-25T17:09:55.688Z,22.02
2022-11-25T17:12:44.769Z,31.45
2022-11-25T17:15:36.874Z,23.35
2022-11-25T17:18:30.977Z,22.83
2022-11-25T17:21:17.996Z,27.65
2022-11-25T17:24:17.372Z,27.45
2022-11-25T17:27:05.728Z,27.23
2022-11-25T17:29:54.343Z,26.27
2022-11-25T17:32:41.265Z,24.05
2022-11-25T17:35:28.222Z,22.80
2022-11-25T17:38:20.077Z,22.55
2022-11-25T17:41:14.500Z,24.98
2022-11-25T17:44:01.411Z,39.03
2022-11-25T17:46:48.407Z,23.27
2022-11-25T17:49:35.321Z,17.88
2022-11-25T17:52:22.242Z,18.48
2022-11-25T17:55:09.817Z,17.38
2022-11-25T17:57:57.083Z,20.77
2022-11-25T18:00:44.915Z,19.40
2022-11-25T18:03:31.814Z,21.70
2022-11-25T18:06:19.053Z,20.48
2022-11-25T18:09:06.330Z,18.67
2022-11-25T18:11:56.348Z,23.65
2022-11-25T18:14:44.746Z,19.08
2022-11-25T18:17:31.648Z,21.55
2022-11-25T18:20:26.057Z,19.60
2022-11-25T18:23:12.954Z,21.05
2022-11-25T18:26:01.934Z,22.80
2022-11-25T18:28:48.912Z,24.30
2022-11-25T18:31:35.886Z,21.77
2022-11-25T18:34:24.610Z,24.70
2022-11-25T18:37:12.287Z,23.90
2022-11-25T18:39:59.176Z,21.50
2022-11-25T18:42:50.272Z,20.33
2022-11-25T18:45:38.704Z,18.08
2022-11-25T18:48:26.863Z,18.75
2022-11-25T18:51:14.929Z,17.42
2022-11-25T18:54:01.858Z,17.85
2022-11-25T18:56:52.133Z,18.08
2022-11-25T18:59:39.465Z,18.58
2022-11-25T19:02:26.604Z,19.45
2022-11-25T19:05:18.920Z,19.85
2022-11-25T19:08:05.765Z,20.08
2022-11-25T19:10:52.864Z,18.25
2022-11-25T19:13:39.840Z,17.73
2022-11-25T19:16:28.033Z,20.98
2022-11-25T19:19:17.146Z,21.58
2022-11-25T19:22:11.367Z,24.77
2022-11-25T19:24:59.220Z,24.00
2022-11-25T19:27:54.240Z,24.90
2022-11-25T19:30:41.315Z,29.65
2022-11-25T19:33:32.833Z,34.63
2022-11-25T19:36:25.518Z,33.33
2022-11-25T19:39:16.944Z,33.17
2022-11-25T19:42:03.961Z,31.77
2022-11-25T19:44:50.949Z,30.60
2022-11-25T19:47:37.965Z,31.30
2022-11-25T19:50:28.309Z,33.50
2022-11-25T19:53:21.675Z,33.53
2022-11-25T19:56:16.494Z,38.05
2022-11-25T19:59:03.617Z,32.28
2022-11-25T20:01:50.858Z,31.63
2022-11-25T20:04:40.844Z,28.55
2022-11-25T20:07:29.513Z,32.63
2022-11-25T20:10:22.843Z,30.85
2022-11-25T20:13:09.932Z,29.65
2022-11-25T20:15:58.564Z,34.72
2022-11-25T20:18:46.253Z,33.35
2022-11-25T20:21:40.591Z,31.17
2022-11-25T20:24:27.576Z,31.60
2022-11-25T20:27:15.251Z,30.38
2022-11-25T20:30:02.724Z,31.25
2022-11-25T20:32:49.704Z,29.75
2022-11-25T20:35:36.975Z,26.83
2022-11-25T20:38:26.522Z,28.30
2022-11-25T20:41:14.446Z,27.25
2022-11-25T20:44:01.446Z,26.08
2022-11-25T20:46:48.360Z,25.17
2022-11-25T20:49:35.607Z,22.60
2022-11-25T20:52:31.301Z,22.67
2022-11-25T20:55:23.521Z,21.65
2022-11-25T20:58:20.537Z,17.67
2022-11-25T21:01:07.866Z,16.85
2022-11-25T21:03:55.009Z,15.05
2022-11-25T21:06:41.935Z,16.40
2022-11-25T21:09:32.690Z,17.10
2022-11-25T21:12:19.865Z,15.30
2022-11-25T21:15:18.507Z,16.02
2022-11-25T21:18:05.605Z,16.65
2022-11-25T21:20:55.382Z,16.55
2022-11-25T21:23:43.681Z,17.08
2022-11-25T21:26:31.976Z,17.92
2022-11-25T21:29:18.957Z,17.25
2022-11-25T21:32:21.717Z,17.75
2022-11-25T21:35:11.042Z,15.48
2022-11-25T21:37:58.919Z,14.95
2022-11-25T21:40:49.138Z,16.50
2022-11-25T21:43:43.814Z,17.42
2022-11-25T21:46:30.735Z,14.63
2022-11-25T21:49:17.702Z,16.05
2022-11-25T21:52:04.851Z,17.27
2022-11-25T21:54:51.845Z,17.70
2022-11-25T21:57:39.287Z,19.73
2022-11-25T22:00:26.482Z,19.08
2022-11-25T22:03:18.142Z,18.65
2022-11-25T22:06:30.047Z,19.95
2022-11-25T22:09:17.471Z,20.60
2022-11-25T22:12:05.300Z,19.65
2022-11-25T22:14:52.600Z,18.38
2022-11-25T22:17:39.710Z,18.30
2022-11-25T22:20:40.429Z,17.63
2022-11-25T22:23:27.939Z,15.77
2022-11-25T22:26:19.675Z,16.33
2022-11-25T22:29:13.306Z,14.70
2022-11-25T22:32:00.596Z,15.38
2022-11-25T22:34:47.580Z,15.20
2022-11-25T22:37:34.960Z,16.48
2022-11-25T22:40:23.625Z,15.10
2022-11-25T22:43:18.085Z,15.05
2022-11-25T22:46:05.443Z,14.50
2022-11-25T22:48:52.432Z,13.68
2022-11-25T22:51:39.379Z,15.77
2022-11-25T22:54:26.399Z,13.20
2022-11-25T22:57:13.374Z,13.70
2022-11-25T23:00:00.320Z,13.80
2022-11-25T23:02:48.839Z,15.15
2022-11-25T23:05:37.290Z,13.60
2022-11-25T23:08:27.086Z,13.98
2022-11-25T23:11:17.577Z,14.60
2022-11-25T23:14:04.499Z,13.93
2022-11-25T23:16:51.733Z,12.52
2022-11-25T23:19:38.757Z,13.30
2022-11-25T23:22:25.662Z,12.05
2022-11-25T23:25:14.932Z,13.73
2022-11-25T23:28:01.855Z,11.50
2022-11-25T23:30:57.083Z,12.35
2022-11-25T23:33:46.699Z,12.00
2022-11-25T23:36:46.373Z,11.05
2022-11-25T23:39:33.446Z,10.57
2022-11-25T23:42:21.024Z,9.90
2022-11-25T23:45:12.673Z,9.23
2022-11-25T23:47:59.588Z,8.02
2022-11-25T23:50:47.248Z,8.02
2022-11-25T23:53:37.876Z,7.82
2022-11-25T23:56:26.962Z,7.15
2022-11-25T23:59:14.944Z,6.93
